Center Lovell, Maine
Current Conditions -  °F | °C
As of 2:54 PM on Monday 22 Dec 2014 (Local Time) from KIZG Reporting Station
Overcast Overcast  
Wind Chill: 34°   Ceiling: 4700
Heat Index: 34°   Visibility: 10mi
Dew Point: 25°   Wind: 0mph
Humidity: 70%   Direction: NA
Pressure: 30.37"   Gusts: NA
Location:  44.18°N, 70.89°W
Report Text: KIZG 221954Z AUTO 00000KT 10SM FEW020 OVC047 01/M04 A3037 RMK AO2 SLP291 T00111039
Loading
Personal Weather Stations






























Interactive Weather Map New forecast layout! Learn more

10-Day Weather Forecast

Advertisements
Track Severe Weather on mobile